createdAt,value
2023-05-24T00:00:32.876Z,5.70
2023-05-24T00:03:00.499Z,5.00
2023-05-24T00:05:31.296Z,6.30
2023-05-24T00:07:59.497Z,4.00
2023-05-24T00:10:26.950Z,4.80
2023-05-24T00:12:54.652Z,5.00
2023-05-24T00:15:22.117Z,4.20
2023-05-24T00:17:49.699Z,5.50
2023-05-24T00:20:17.395Z,4.40
2023-05-24T00:22:45.076Z,4.30
2023-05-24T00:25:12.669Z,4.00
2023-05-24T00:27:40.371Z,4.30
2023-05-24T00:30:08.153Z,7.40
2023-05-24T00:32:35.800Z,4.40
2023-05-24T00:35:04.689Z,5.30
2023-05-24T00:37:32.604Z,5.30
2023-05-24T00:40:00.251Z,6.40
2023-05-24T00:42:27.927Z,5.60
2023-05-24T00:44:55.546Z,4.50
2023-05-24T00:47:23.110Z,5.50
2023-05-24T00:49:50.739Z,5.10
2023-05-24T00:52:18.295Z,8.70
2023-05-24T00:54:45.924Z,6.00
2023-05-24T00:57:16.319Z,7.30
2023-05-24T00:59:43.761Z,4.70
2023-05-24T01:02:11.438Z,5.80
2023-05-24T01:04:38.873Z,8.10
2023-05-24T01:07:13.437Z,6.60
2023-05-24T01:09:56.703Z,5.10
2023-05-24T01:12:37.094Z,6.40
2023-05-24T01:15:10.723Z,6.70
2023-05-24T01:18:01.727Z,6.70
2023-05-24T01:20:30.828Z,6.70
2023-05-24T01:23:06.556Z,6.00
2023-05-24T01:25:46.585Z,5.30
2023-05-24T01:28:14.078Z,6.50
2023-05-24T01:30:41.845Z,6.90
2023-05-24T01:33:09.598Z,7.00
2023-05-24T01:35:40.548Z,8.10
2023-05-24T01:38:08.595Z,6.30
2023-05-24T01:40:36.115Z,5.10
2023-05-24T01:43:27.554Z,6.10
2023-05-24T01:45:56.410Z,6.00
2023-05-24T01:48:48.910Z,7.90
2023-05-24T01:51:18.784Z,4.90
2023-05-24T01:53:47.720Z,7.30
2023-05-24T01:56:17.430Z,6.80
2023-05-24T01:58:46.084Z,6.00
2023-05-24T02:01:14.445Z,7.00
2023-05-24T02:03:42.032Z,6.90
2023-05-24T02:06:10.949Z,7.00
2023-05-24T02:08:40.529Z,5.10
2023-05-24T02:11:08.168Z,5.10
2023-05-24T02:13:35.605Z,7.20
2023-05-24T02:16:05.277Z,5.10
2023-05-24T02:18:35.074Z,4.10
2023-05-24T02:21:02.861Z,4.70
2023-05-24T02:23:30.447Z,6.70
2023-05-24T02:26:00.292Z,5.70
2023-05-24T02:28:28.475Z,5.90
2023-05-24T02:30:55.975Z,5.40
2023-05-24T02:33:25.754Z,6.80
2023-05-24T02:35:53.267Z,4.90
2023-05-24T02:38:20.848Z,6.10
2023-05-24T02:40:48.487Z,5.30
2023-05-24T02:43:16.154Z,5.30
2023-05-24T02:45:43.632Z,5.70
2023-05-24T02:48:12.118Z,7.10
2023-05-24T02:50:39.635Z,6.90
2023-05-24T02:53:07.327Z,5.80
2023-05-24T02:55:34.904Z,6.90
2023-05-24T02:58:03.067Z,4.70
2023-05-24T03:00:31.200Z,5.20
2023-05-24T03:03:24.736Z,4.50
2023-05-24T03:05:52.510Z,7.30
2023-05-24T03:08:20.032Z,6.20
2023-05-24T03:10:47.588Z,6.20
2023-05-24T03:13:15.246Z,5.10
2023-05-24T03:15:43.127Z,4.90
2023-05-24T03:18:10.625Z,13.80
2023-05-24T03:20:39.568Z,5.90
2023-05-24T03:23:09.713Z,4.90
2023-05-24T03:25:37.278Z,5.70
2023-05-24T03:28:04.981Z,5.40
2023-05-24T03:30:33.256Z,7.60
2023-05-24T03:33:01.323Z,6.70
2023-05-24T03:35:29.155Z,5.60
2023-05-24T03:37:56.842Z,6.40
2023-05-24T03:40:25.918Z,4.40
2023-05-24T03:42:58.257Z,4.70
2023-05-24T03:48:10.559Z,5.70
2023-05-24T03:50:38.110Z,5.70
2023-05-24T03:53:05.621Z,4.90
2023-05-24T03:55:33.104Z,7.30
2023-05-24T03:58:01.062Z,5.60
2023-05-24T04:00:29.030Z,4.20
2023-05-24T04:02:57.061Z,5.00
2023-05-24T04:05:29.990Z,3.60
2023-05-24T04:07:57.587Z,5.10
2023-05-24T04:10:25.145Z,3.70
2023-05-24T04:12:52.849Z,5.10
2023-05-24T04:15:21.389Z,5.90
2023-05-24T04:17:55.115Z,4.30
2023-05-24T04:20:25.725Z,6.50
2023-05-24T04:22:54.166Z,4.60
2023-05-24T04:25:22.193Z,4.60
2023-05-24T04:27:50.486Z,6.70
2023-05-24T04:30:18.015Z,4.60
2023-05-24T04:32:45.748Z,21.70
2023-05-24T04:35:14.216Z,15.10
2023-05-24T04:37:41.807Z,7.00
2023-05-24T04:40:10.631Z,5.90
2023-05-24T04:42:38.497Z,6.30
2023-05-24T04:45:07.192Z,5.00
2023-05-24T04:47:34.753Z,4.60
2023-05-24T04:50:02.387Z,4.70
2023-05-24T04:52:30.669Z,4.80
2023-05-24T04:54:58.331Z,4.90
2023-05-24T04:57:25.847Z,3.40
2023-05-24T04:59:53.380Z,6.80
2023-05-24T05:02:22.536Z,4.00
2023-05-24T05:04:50.138Z,4.70
2023-05-24T05:07:17.932Z,4.80
2023-05-24T05:09:45.451Z,7.00
2023-05-24T05:12:12.980Z,7.00
2023-05-24T05:14:40.590Z,5.20
2023-05-24T05:17:08.157Z,4.00
2023-05-24T05:19:35.914Z,5.30
2023-05-24T05:22:03.371Z,3.10
2023-05-24T05:24:31.677Z,4.00
2023-05-24T05:26:59.204Z,4.20
2023-05-24T05:29:26.733Z,5.00
2023-05-24T05:31:54.265Z,5.80
2023-05-24T05:34:21.934Z,4.60
2023-05-24T05:36:49.503Z,4.80
2023-05-24T05:39:17.089Z,6.10
2023-05-24T05:41:46.587Z,4.80
2023-05-24T05:44:17.150Z,5.00
2023-05-24T05:46:46.474Z,4.60
2023-05-24T05:49:15.527Z,4.50
2023-05-24T05:51:42.998Z,4.80
2023-05-24T05:54:14.608Z,4.10
2023-05-24T05:56:48.864Z,6.10
2023-05-24T06:01:45.796Z,4.60
2023-05-24T06:04:14.375Z,5.40
2023-05-24T06:06:42.232Z,5.60
2023-05-24T06:09:11.422Z,5.10
2023-05-24T06:11:56.775Z,6.30
2023-05-24T06:14:27.657Z,6.10
2023-05-24T06:16:56.294Z,6.30
2023-05-24T06:19:25.364Z,7.20
2023-05-24T06:21:53.114Z,7.60
2023-05-24T06:24:21.904Z,5.50
2023-05-24T06:26:50.990Z,8.00
2023-05-24T06:29:22.962Z,8.20
2023-05-24T06:31:51.573Z,11.10
2023-05-24T06:34:21.598Z,7.30
2023-05-24T06:36:51.609Z,5.50
2023-05-24T06:39:19.615Z,7.30
2023-05-24T06:41:47.540Z,5.60
2023-05-24T06:44:16.581Z,5.10
2023-05-24T06:46:44.541Z,6.10
2023-05-24T06:49:12.733Z,10.50
2023-05-24T06:51:48.604Z,9.40
2023-05-24T06:54:16.892Z,9.00
2023-05-24T06:56:58.984Z,7.80
2023-05-24T06:59:27.802Z,10.10
2023-05-24T07:01:59.983Z,6.90
2023-05-24T07:04:29.456Z,5.40
2023-05-24T07:06:58.079Z,6.40
2023-05-24T07:09:25.700Z,6.00
2023-05-24T07:11:56.382Z,6.00
2023-05-24T07:14:31.888Z,8.20
2023-05-24T07:17:00.067Z,7.60
2023-05-24T07:19:36.201Z,5.50
2023-05-24T07:22:07.557Z,6.00
2023-05-24T07:24:36.616Z,6.00
2023-05-24T07:27:07.527Z,6.20
2023-05-24T07:29:35.150Z,6.60
2023-05-24T07:32:02.953Z,7.90
2023-05-24T07:34:31.862Z,7.50
2023-05-24T07:37:00.893Z,7.20
2023-05-24T07:39:31.259Z,8.20
2023-05-24T07:41:58.831Z,9.00
2023-05-24T07:44:26.449Z,9.20
2023-05-24T07:46:55.834Z,6.60
2023-05-24T07:49:24.119Z,5.30
2023-05-24T07:51:52.296Z,6.10
2023-05-24T07:54:20.245Z,8.10
2023-05-24T07:56:47.969Z,6.50
2023-05-24T07:59:19.346Z,6.60
2023-05-24T08:01:48.574Z,8.20
2023-05-24T08:04:16.434Z,9.50
2023-05-24T08:06:44.074Z,10.40
2023-05-24T08:09:12.461Z,8.40
2023-05-24T08:11:40.097Z,10.80
2023-05-24T08:14:07.704Z,5.90
2023-05-24T08:16:35.703Z,6.40
2023-05-24T08:19:03.376Z,5.90
2023-05-24T08:21:31.989Z,6.20
2023-05-24T08:24:00.650Z,5.90
2023-05-24T08:26:28.275Z,5.90
2023-05-24T08:28:55.743Z,5.50
2023-05-24T08:31:23.422Z,6.10
2023-05-24T08:33:51.493Z,7.00
2023-05-24T08:36:19.213Z,6.30
2023-05-24T08:38:46.648Z,6.60
2023-05-24T08:41:14.315Z,6.30
2023-05-24T08:43:42.489Z,5.80
2023-05-24T08:46:10.080Z,5.50
2023-05-24T08:48:44.771Z,6.20
2023-05-24T08:51:14.649Z,8.30
2023-05-24T08:53:42.581Z,7.30
2023-05-24T08:56:10.752Z,5.50
2023-05-24T08:58:41.735Z,6.30
2023-05-24T09:01:10.862Z,9.30
2023-05-24T09:03:38.817Z,6.70
2023-05-24T09:06:07.428Z,7.10
2023-05-24T09:08:35.627Z,7.50
2023-05-24T09:11:04.712Z,7.00
2023-05-24T09:13:35.241Z,7.80
2023-05-24T09:16:07.178Z,10.60
2023-05-24T09:18:34.724Z,6.30
2023-05-24T09:21:02.269Z,6.40
2023-05-24T09:23:29.886Z,5.80
2023-05-24T09:26:01.788Z,6.80
2023-05-24T09:42:30.433Z,6.30
2023-05-24T09:45:12.310Z,5.40
2023-05-24T09:47:42.167Z,5.90
2023-05-24T09:50:17.693Z,6.10
2023-05-24T09:52:45.952Z,7.20
2023-05-24T09:55:18.155Z,6.80
2023-05-24T09:57:50.630Z,8.80
2023-05-24T10:00:25.280Z,6.10
2023-05-24T10:03:07.564Z,7.00
2023-05-24T10:05:36.070Z,7.00
2023-05-24T10:08:05.328Z,10.20
2023-05-24T10:10:35.894Z,6.50
2023-05-24T10:13:03.694Z,6.30
2023-05-24T10:15:31.481Z,6.40
2023-05-24T10:18:00.855Z,6.50
2023-05-24T10:20:28.694Z,6.40
2023-05-24T10:23:00.794Z,6.80
2023-05-24T10:25:32.972Z,6.60
2023-05-24T10:28:07.493Z,7.10
2023-05-24T10:30:40.633Z,6.70
2023-05-24T10:33:08.646Z,6.90
2023-05-24T10:35:38.422Z,8.20
2023-05-24T10:38:09.013Z,6.40
2023-05-24T10:40:44.838Z,6.50
2023-05-24T10:43:13.812Z,6.30
2023-05-24T10:45:48.878Z,7.00
2023-05-24T10:48:17.250Z,7.20
2023-05-24T10:50:45.292Z,6.30
2023-05-24T10:53:34.633Z,5.30
2023-05-24T10:56:28.137Z,6.50
2023-05-24T10:59:01.064Z,6.00
2023-05-24T11:01:31.249Z,6.90
2023-05-24T11:04:17.123Z,7.40
2023-05-24T11:06:52.561Z,7.30
2023-05-24T11:09:20.514Z,6.00
2023-05-24T11:11:50.235Z,5.70
2023-05-24T11:14:28.518Z,6.20
2023-05-24T11:16:56.968Z,5.50
2023-05-24T11:19:48.658Z,6.30
2023-05-24T11:22:16.730Z,5.20
2023-05-24T11:24:47.531Z,6.00
2023-05-24T11:27:15.393Z,6.10
2023-05-24T11:29:48.082Z,5.20
2023-05-24T11:32:18.987Z,5.50
2023-05-24T11:34:52.498Z,6.10
2023-05-24T11:37:38.571Z,6.10
2023-05-24T11:40:16.503Z,5.40
2023-05-24T11:42:44.822Z,6.50
2023-05-24T11:45:14.154Z,6.00
2023-05-24T11:47:41.957Z,6.40
2023-05-24T11:50:10.396Z,6.30
2023-05-24T11:52:44.326Z,7.70
2023-05-24T11:55:16.354Z,6.70
2023-05-24T11:57:48.085Z,7.20
2023-05-24T12:00:38.613Z,7.40
2023-05-24T12:03:11.607Z,8.10
2023-05-24T12:05:43.191Z,6.20
2023-05-24T12:08:15.858Z,6.50
2023-05-24T12:10:44.067Z,7.30
2023-05-24T12:13:25.780Z,6.00
2023-05-24T12:15:57.134Z,6.40
2023-05-24T12:18:26.836Z,6.60
2023-05-24T12:21:11.668Z,6.50
2023-05-24T12:23:41.592Z,6.40
2023-05-24T12:26:09.739Z,7.40
2023-05-24T12:28:39.170Z,5.80
2023-05-24T12:31:07.365Z,6.40
2023-05-24T12:33:35.978Z,5.90
2023-05-24T12:36:03.605Z,5.70
2023-05-24T12:38:31.747Z,6.20
2023-05-24T12:41:12.407Z,5.70
2023-05-24T12:43:44.762Z,6.30
2023-05-24T12:46:14.397Z,7.20
2023-05-24T12:48:42.514Z,6.30
2023-05-24T12:51:12.864Z,6.40
2023-05-24T12:53:46.767Z,5.90
2023-05-24T12:56:14.322Z,7.80
2023-05-24T12:58:46.048Z,6.30
2023-05-24T13:01:14.911Z,6.80
2023-05-24T13:03:43.307Z,5.60
2023-05-24T13:06:11.668Z,6.00
2023-05-24T13:08:40.979Z,6.00
2023-05-24T13:11:16.702Z,5.30
2023-05-24T13:13:46.356Z,5.90
2023-05-24T13:16:17.031Z,5.70
2023-05-24T13:18:51.258Z,5.40
2023-05-24T13:21:22.227Z,5.10
2023-05-24T13:23:49.952Z,6.70
2023-05-24T13:26:20.504Z,5.40
2023-05-24T13:29:15.043Z,4.90
2023-05-24T13:31:38.512Z,5.40
2023-05-24T13:34:09.542Z,6.00
2023-05-24T13:36:38.429Z,6.00
2023-05-24T13:41:41.921Z,7.10
2023-05-24T13:44:10.429Z,6.60
2023-05-24T13:46:39.677Z,7.30
2023-05-24T13:49:07.743Z,5.90
2023-05-24T13:51:35.816Z,7.00
2023-05-24T13:54:05.041Z,6.30
2023-05-24T13:56:33.349Z,7.50
2023-05-24T13:59:02.642Z,8.80
2023-05-24T14:01:34.962Z,6.90
2023-05-24T14:04:06.383Z,6.50
2023-05-24T14:06:35.743Z,7.10
2023-05-24T14:09:08.552Z,6.10
2023-05-24T14:11:36.924Z,7.20
2023-05-24T14:16:37.351Z,6.50
2023-05-24T14:19:05.377Z,6.60
2023-05-24T14:21:33.136Z,6.30
2023-05-24T14:24:04.634Z,6.60
2023-05-24T14:26:38.882Z,6.70
2023-05-24T14:29:09.979Z,6.80
2023-05-24T14:31:42.571Z,6.30
2023-05-24T14:34:13.617Z,6.70
2023-05-24T14:36:43.297Z,6.40
2023-05-24T14:39:11.281Z,9.20
2023-05-24T14:41:39.239Z,6.70
2023-05-24T14:44:06.939Z,5.90
2023-05-24T14:46:34.706Z,6.70
2023-05-24T14:49:02.863Z,6.80
2023-05-24T14:51:30.683Z,5.90
2023-05-24T14:53:58.603Z,7.90
2023-05-24T14:56:26.306Z,6.40
2023-05-24T14:58:55.156Z,5.60
2023-05-24T15:01:23.449Z,7.50
2023-05-24T15:03:51.630Z,7.40
2023-05-24T15:06:19.897Z,7.20
2023-05-24T15:08:47.540Z,7.20
2023-05-24T15:11:19.832Z,7.90
2023-05-24T15:13:48.658Z,5.60
2023-05-24T15:16:16.286Z,6.30
2023-05-24T15:18:43.904Z,8.40
2023-05-24T15:21:11.876Z,5.40
2023-05-24T15:23:40.052Z,6.40
2023-05-24T15:26:08.413Z,5.50
2023-05-24T15:28:35.977Z,6.20
2023-05-24T15:31:03.926Z,7.50
2023-05-24T15:33:32.910Z,6.40
2023-05-24T15:36:00.811Z,6.60
2023-05-24T15:38:28.515Z,6.90
2023-05-24T15:40:56.260Z,6.80
2023-05-24T15:43:24.034Z,6.40
2023-05-24T15:45:51.666Z,5.70
2023-05-24T15:48:19.473Z,10.90
2023-05-24T15:51:32.003Z,8.70
2023-05-24T15:53:34.852Z,6.20
2023-05-24T15:56:02.424Z,6.60
2023-05-24T15:58:30.022Z,6.40
2023-05-24T16:00:57.736Z,8.00
2023-05-24T16:03:25.434Z,7.40
2023-05-24T16:05:53.138Z,9.50
2023-05-24T16:08:27.879Z,5.40
2023-05-24T16:10:56.060Z,6.60
2023-05-24T16:13:23.813Z,4.50
2023-05-24T16:15:54.353Z,1.90
2023-05-24T16:18:23.495Z,2.30
2023-05-24T16:20:52.030Z,3.90
2023-05-24T16:23:23.246Z,2.50
2023-05-24T16:25:54.424Z,3.20
2023-05-24T16:28:24.385Z,4.90
2023-05-24T16:30:58.845Z,1.80
2023-05-24T16:36:02.925Z,2.90
2023-05-24T16:38:31.351Z,2.70
2023-05-24T16:40:59.326Z,2.30
2023-05-24T16:43:26.906Z,5.60
2023-05-24T16:45:55.632Z,3.10
2023-05-24T16:48:28.715Z,2.60
2023-05-24T16:50:56.963Z,2.00
2023-05-24T16:53:26.302Z,3.70
2023-05-24T16:55:55.930Z,2.80
2023-05-24T16:58:24.787Z,2.20
2023-05-24T17:00:54.647Z,3.70
2023-05-24T17:03:28.686Z,2.90
2023-05-24T17:06:00.106Z,3.80
2023-05-24T17:08:30.267Z,4.20
2023-05-24T17:10:59.213Z,4.70
2023-05-24T17:13:29.690Z,3.60
2023-05-24T17:15:57.991Z,3.40
2023-05-24T17:18:29.663Z,3.30
2023-05-24T17:21:01.600Z,3.00
2023-05-24T17:23:31.180Z,3.00
2023-05-24T17:25:59.112Z,4.20
2023-05-24T17:28:29.755Z,5.50
2023-05-24T17:30:58.496Z,4.00
2023-05-24T17:33:28.055Z,6.50
2023-05-24T17:35:56.882Z,3.30
2023-05-24T17:38:25.261Z,3.70
2023-05-24T17:40:59.713Z,2.30
2023-05-24T17:43:35.462Z,4.20
2023-05-24T17:46:07.045Z,5.90
2023-05-24T17:48:43.056Z,3.70
2023-05-24T17:51:10.837Z,4.90
2023-05-24T17:53:38.579Z,4.90
2023-05-24T17:56:06.501Z,3.90
2023-05-24T17:58:37.510Z,4.20
2023-05-24T18:03:46.648Z,1.70
2023-05-24T18:06:14.321Z,4.90
2023-05-24T18:08:44.823Z,3.00
2023-05-24T18:11:13.889Z,4.20
2023-05-24T18:13:42.798Z,5.20
2023-05-24T18:16:11.168Z,6.80
2023-05-24T18:18:39.041Z,5.70
2023-05-24T18:21:06.748Z,8.60
2023-05-24T18:23:37.894Z,6.20
2023-05-24T18:26:09.597Z,10.00
2023-05-24T18:28:37.846Z,8.70
2023-05-24T18:31:08.781Z,12.90
2023-05-24T18:33:37.962Z,21.10
2023-05-24T18:36:06.396Z,17.00
2023-05-24T18:38:33.911Z,22.40
2023-05-24T18:41:04.146Z,20.10
2023-05-24T18:43:33.606Z,22.90
2023-05-24T18:46:01.670Z,16.40
2023-05-24T18:48:29.291Z,13.10
2023-05-24T18:50:56.800Z,12.80
2023-05-24T18:53:25.801Z,13.70
2023-05-24T18:55:53.343Z,9.90
2023-05-24T18:58:20.810Z,8.90
2023-05-24T19:00:48.370Z,7.80
2023-05-24T19:03:16.124Z,6.30
2023-05-24T19:05:44.302Z,8.10
2023-05-24T19:08:12.206Z,4.30
2023-05-24T19:10:39.833Z,5.10
2023-05-24T19:13:07.415Z,4.30
2023-05-24T19:15:35.458Z,4.30
2023-05-24T19:18:03.560Z,5.40
2023-05-24T19:20:31.318Z,6.80
2023-05-24T19:22:59.237Z,5.80
2023-05-24T19:25:26.943Z,5.80
2023-05-24T19:28:00.009Z,3.90
2023-05-24T19:30:28.313Z,6.90
2023-05-24T19:32:56.014Z,6.20
2023-05-24T19:35:23.581Z,7.70
2023-05-24T19:37:52.464Z,4.50
2023-05-24T19:40:20.599Z,4.40
2023-05-24T19:42:48.132Z,5.00
2023-05-24T19:45:16.580Z,3.70
2023-05-24T19:47:45.589Z,4.30
2023-05-24T19:50:13.064Z,3.40
2023-05-24T19:52:40.771Z,4.10
2023-05-24T19:55:08.764Z,4.10
2023-05-24T19:57:36.291Z,5.90
2023-05-24T20:00:04.859Z,4.40
2023-05-24T20:02:38.835Z,4.60
2023-05-24T20:05:07.177Z,3.90
2023-05-24T20:07:34.745Z,4.70
2023-05-24T20:10:05.334Z,5.60
2023-05-24T20:12:34.759Z,6.10
2023-05-24T20:15:02.373Z,5.50
2023-05-24T20:17:29.919Z,6.80
2023-05-24T20:19:57.512Z,6.70
2023-05-24T20:22:25.232Z,5.70
2023-05-24T20:24:52.750Z,3.60
2023-05-24T20:27:20.245Z,3.90
2023-05-24T20:29:47.969Z,5.90
2023-05-24T20:32:16.532Z,3.90
2023-05-24T20:34:44.217Z,4.30
2023-05-24T20:37:11.703Z,2.80
2023-05-24T20:39:39.258Z,6.00
2023-05-24T20:42:08.444Z,3.70
2023-05-24T20:44:35.916Z,5.50
2023-05-24T20:47:03.462Z,3.90
2023-05-24T20:49:31.008Z,4.30
2023-05-24T20:51:58.596Z,4.80
2023-05-24T20:54:26.167Z,4.60
2023-05-24T20:56:53.848Z,6.10
2023-05-24T20:59:21.350Z,5.50
2023-05-24T21:01:48.806Z,7.90
2023-05-24T21:04:16.475Z,5.80
2023-05-24T21:06:44.069Z,3.40
2023-05-24T21:09:11.649Z,3.00
2023-05-24T21:11:39.526Z,3.50
2023-05-24T21:14:06.993Z,3.20
2023-05-24T21:16:34.712Z,3.70
2023-05-24T21:19:02.300Z,3.20
2023-05-24T21:21:29.809Z,3.20
2023-05-24T21:23:58.114Z,5.00
2023-05-24T21:26:26.723Z,2.40
2023-05-24T21:28:54.241Z,4.90
2023-05-24T21:31:21.768Z,3.40
2023-05-24T21:33:49.271Z,2.60
2023-05-24T21:36:18.708Z,4.20
2023-05-24T21:38:46.240Z,4.30
2023-05-24T21:41:13.784Z,5.30
2023-05-24T21:43:41.948Z,4.30
2023-05-24T21:46:09.456Z,2.80
2023-05-24T21:48:36.900Z,4.50
2023-05-24T21:51:04.347Z,4.70
2023-05-24T21:53:31.767Z,5.10
2023-05-24T21:55:59.215Z,4.90
2023-05-24T21:58:26.707Z,4.30
2023-05-24T22:00:54.286Z,3.60
2023-05-24T22:03:21.900Z,4.60
2023-05-24T22:05:49.396Z,6.20
2023-05-24T22:08:16.929Z,6.00
2023-05-24T22:10:44.378Z,4.90
2023-05-24T22:13:12.309Z,4.40
2023-05-24T22:15:39.814Z,4.30
2023-05-24T22:18:07.405Z,4.50
2023-05-24T22:20:36.860Z,4.10
2023-05-24T22:23:04.512Z,6.50
2023-05-24T22:25:32.093Z,5.60
2023-05-24T22:27:59.569Z,4.10
2023-05-24T22:30:27.162Z,2.90
2023-05-24T22:32:56.076Z,3.90
2023-05-24T22:35:23.549Z,3.20
2023-05-24T22:37:51.141Z,4.20
2023-05-24T22:40:18.615Z,3.30
2023-05-24T22:42:46.174Z,4.00
2023-05-24T22:45:14.110Z,7.20
2023-05-24T22:47:41.714Z,6.40
2023-05-24T22:50:09.619Z,5.60
2023-05-24T22:52:42.701Z,5.70
2023-05-24T22:55:11.292Z,6.30
2023-05-24T22:57:38.812Z,7.60
2023-05-24T23:00:08.241Z,4.80
2023-05-24T23:02:36.551Z,6.00
2023-05-24T23:05:04.831Z,4.70
2023-05-24T23:07:32.738Z,6.10
2023-05-24T23:10:00.272Z,7.40
2023-05-24T23:12:27.757Z,6.30
2023-05-24T23:14:58.500Z,5.00
2023-05-24T23:17:26.531Z,5.40
2023-05-24T23:19:54.156Z,5.10
2023-05-24T23:22:23.937Z,4.30
2023-05-24T23:24:51.941Z,4.20
2023-05-24T23:27:19.511Z,7.00
2023-05-24T23:29:47.030Z,5.90
2023-05-24T23:32:14.681Z,5.90
2023-05-24T23:34:42.173Z,4.50
2023-05-24T23:37:09.700Z,3.80
2023-05-24T23:39:38.201Z,6.50
2023-05-24T23:42:06.855Z,3.60
2023-05-24T23:44:34.384Z,4.60
2023-05-24T23:47:02.180Z,5.40
2023-05-24T23:49:29.901Z,5.90
2023-05-24T23:51:57.486Z,3.60
2023-05-24T23:54:25.066Z,4.20
2023-05-24T23:56:52.504Z,5.60
2023-05-24T23:59:19.986Z,3.90
